Terminal Aerodrome Forecast
Issued by NWS Twin Cities, MN

Home | Current Version | Previous Version | Graphics & Text | Print | Product List | Glossary On
Versions: 1 2 3 4 5 6 7 8 9 10 11 12 13 14
749
FTUS43 KMPX 210949 AAA
TAFEAU
TAF AMD
KEAU 210949Z 2110/2206 00000KT P6SM SKC
      TEMPO 2110/2112 3/4SM BR VV004
     FM211500 11007KT P6SM SKC
     FM211800 13009KT P6SM SKC
     FM212200 14009KT P6SM BKN035
     FM220200 15008KT P6SM SCT050=

USA.gov is the U.S. government's official web portal to all federal, state and local government web resources and services.